Time;durP1;ratioP1;P1;durP2;ratioP2;P2;SDS_P1;SDS_P2;PMS_P1;PMS_P2;Temp;Humidity;BMP_temperature;BMP_pressure;BME280_temperature;BME280_humidity;BME280_pressure;Samples;Min_cycle;Max_cycle;Signal;HPM_P1;HPM_P2
2023/02/05 00:02:12;;;;;;;5.07;3.35;;;;;;;;;;6155085;23;20013;-85
2023/02/05 00:04:40;;;;;;;4.13;3.03;;;;;;;;;;6165587;23;20028;-84
2023/02/05 00:07:07;;;;;;;4.82;3.80;;;;;;;;;;6131425;23;20013;-84
2023/02/05 00:09:39;;;;;;;7.22;3.90;;;;;;;;;;6156954;23;20014;-84
2023/02/05 00:12:07;;;;;;;6.20;3.28;;;;;;;;;;6191439;23;20376;-85
2023/02/05 00:14:34;;;;;;;9.02;4.03;;;;;;;;;;6155276;23;20021;-85
2023/02/05 00:17:02;;;;;;;5.82;3.55;;;;;;;;;;6156258;23;20456;-85
2023/02/05 00:19:29;;;;;;;5.25;3.05;;;;;;;;;;6158436;23;20017;-84
2023/02/05 00:21:56;;;;;;;10.13;3.40;;;;;;;;;;6183679;23;20017;-85
2023/02/05 00:24:23;;;;;;;6.65;3.75;;;;;;;;;;6158442;23;20013;-84
2023/02/05 00:26:52;;;;;;;8.25;4.47;;;;;;;;;;6183630;23;20017;-85
2023/02/05 00:29:19;;;;;;;5.70;3.75;;;;;;;;;;6159539;23;20017;-85
2023/02/05 00:31:48;;;;;;;4.75;3.50;;;;;;;;;;6157967;23;20343;-84
2023/02/05 00:34:15;;;;;;;10.30;3.50;;;;;;;;;;6157312;23;20349;-84
2023/02/05 00:36:45;;;;;;;4.97;4.20;;;;;;;;;;6156780;23;20016;-84
2023/02/05 00:39:13;;;;;;;5.93;4.35;;;;;;;;;;6156183;23;20057;-89
2023/02/05 00:41:40;;;;;;;5.88;5.28;;;;;;;;;;6182001;23;20020;-89
2023/02/05 00:44:09;;;;;;;6.63;3.00;;;;;;;;;;6157700;23;20024;-88
2023/02/05 00:46:36;;;;;;;4.90;3.30;;;;;;;;;;6155331;23;20348;-89
2023/02/05 00:49:04;;;;;;;3.25;2.65;;;;;;;;;;6183505;23;20035;-89
2023/02/05 00:51:31;;;;;;;7.47;3.50;;;;;;;;;;6182125;23;20016;-89
2023/02/05 00:53:59;;;;;;;8.32;4.03;;;;;;;;;;6182955;23;20040;-88
2023/02/05 00:56:26;;;;;;;5.50;3.67;;;;;;;;;;6180140;23;20017;-89
2023/02/05 00:58:56;;;;;;;6.35;3.15;;;;;;;;;;6184801;23;20013;-89
2023/02/05 01:01:25;;;;;;;5.65;3.00;;;;;;;;;;6157766;23;20020;-88
2023/02/05 01:03:52;;;;;;;6.13;3.53;;;;;;;;;;6182751;23;20013;-89
2023/02/05 01:06:19;;;;;;;6.20;3.22;;;;;;;;;;6181126;23;20017;-88
2023/02/05 01:08:47;;;;;;;7.22;3.78;;;;;;;;;;6181740;23;20025;-88
2023/02/05 01:11:14;;;;;;;5.25;3.03;;;;;;;;;;6157842;23;20013;-89
2023/02/05 01:13:42;;;;;;;4.80;4.05;;;;;;;;;;6157646;23;20043;-89
2023/02/05 01:16:10;;;;;;;5.55;3.50;;;;;;;;;;6180743;23;20024;-89
2023/02/05 01:18:38;;;;;;;5.13;3.53;;;;;;;;;;6182321;23;20008;-88
2023/02/05 01:21:12;;;;;;;4.70;2.95;;;;;;;;;;6156948;23;20024;-89
2023/02/05 02:50:12;;;;;;;3.78;2.65;;;;;;;;;;5844491;24;20365;-89
2023/02/05 02:52:42;;;;;;;2.22;2.03;;;;;;;;;;5917772;23;20025;-88
2023/02/05 02:55:11;;;;;;;5.13;3.20;;;;;;;;;;6067820;23;20341;-89
2023/02/05 02:57:43;;;;;;;5.68;3.58;;;;;;;;;;6133276;23;20330;-88
2023/02/05 03:00:14;;;;;;;6.60;2.85;;;;;;;;;;6126304;23;20032;-88
2023/02/05 03:02:42;;;;;;;7.15;4.45;;;;;;;;;;6151400;23;20323;-89
2023/02/05 03:05:14;;;;;;;4.72;3.30;;;;;;;;;;6127228;23;20492;-88
2023/02/05 03:07:43;;;;;;;7.25;3.85;;;;;;;;;;6125337;23;20029;-88
2023/02/05 03:57:51;;;;;;;3.67;2.65;;;;;;;;;;6177681;23;20016;-89
2023/02/05 04:00:20;;;;;;;5.07;3.05;;;;;;;;;;6137469;23;20018;-89
2023/02/05 04:02:52;;;;;;;6.63;3.67;;;;;;;;;;6156185;23;20353;-90
2023/02/05 04:05:24;;;;;;;3.40;3.00;;;;;;;;;;6076131;23;20025;-89
2023/02/05 04:07:53;;;;;;;4.18;3.08;;;;;;;;;;6128563;23;20020;-89
2023/02/05 04:10:24;;;;;;;2.53;2.00;;;;;;;;;;6111084;23;20018;-89
2023/02/05 04:12:54;;;;;;;3.90;2.33;;;;;;;;;;6102074;23;20018;-90
2023/02/05 04:15:22;;;;;;;4.85;3.58;;;;;;;;;;6101353;23;20469;-89
2023/02/05 04:17:56;;;;;;;4.05;2.85;;;;;;;;;;6074741;23;20018;-89
2023/02/05 04:20:28;;;;;;;4.10;3.58;;;;;;;;;;6074332;23;20025;-90
2023/02/05 04:22:55;;;;;;;4.43;4.03;;;;;;;;;;6074520;23;20018;-89
2023/02/05 04:25:23;;;;;;;8.52;3.33;;;;;;;;;;6099191;23;20303;-89
2023/02/05 04:27:54;;;;;;;5.18;3.33;;;;;;;;;;6098485;23;20021;-89
2023/02/05 04:30:21;;;;;;;5.32;3.42;;;;;;;;;;6074084;23;20021;-89
2023/02/05 04:32:49;;;;;;;5.70;3.00;;;;;;;;;;6074991;23;20018;-89
2023/02/05 04:35:18;;;;;;;4.03;3.63;;;;;;;;;;6122657;23;20018;-88
2023/02/05 04:37:47;;;;;;;7.50;2.97;;;;;;;;;;6098690;23;20022;-88
2023/02/05 04:40:15;;;;;;;4.85;3.55;;;;;;;;;;6098090;23;20011;-89
2023/02/05 04:42:43;;;;;;;3.65;3.00;;;;;;;;;;6125334;23;20028;-90
2023/02/05 04:45:12;;;;;;;2.80;2.50;;;;;;;;;;6124016;23;20018;-89
2023/02/05 04:47:39;;;;;;;5.10;2.95;;;;;;;;;;6098274;23;20037;-89
2023/02/05 04:50:07;;;;;;;3.38;2.45;;;;;;;;;;6098725;23;20029;-90
2023/02/05 04:52:35;;;;;;;7.05;3.40;;;;;;;;;;6075141;23;20024;-89
2023/02/05 04:55:02;;;;;;;3.30;2.70;;;;;;;;;;6096602;23;20021;-89
2023/02/05 04:57:29;;;;;;;4.13;3.72;;;;;;;;;;6123057;23;20014;-88
2023/02/05 04:59:57;;;;;;;5.25;2.63;;;;;;;;;;6134439;23;20458;-89
2023/02/05 05:02:26;;;;;;;5.10;3.20;;;;;;;;;;6098792;23;20029;-89
2023/02/05 05:04:53;;;;;;;9.60;3.05;;;;;;;;;;6132670;23;20025;-88
2023/02/05 05:07:20;;;;;;;5.43;3.10;;;;;;;;;;6098684;23;20018;-89
2023/02/05 05:09:48;;;;;;;4.22;2.75;;;;;;;;;;6097207;23;20338;-89
2023/02/05 05:12:15;;;;;;;6.03;3.15;;;;;;;;;;6097947;23;20239;-89
2023/02/05 05:14:42;;;;;;;4.78;3.25;;;;;;;;;;6075301;23;20018;-89
2023/02/05 05:17:11;;;;;;;3.67;2.85;;;;;;;;;;6124388;23;20014;-89
2023/02/05 05:19:40;;;;;;;3.70;2.88;;;;;;;;;;6097567;23;20014;-87
2023/02/05 05:22:07;;;;;;;3.90;3.38;;;;;;;;;;6097639;23;20497;-89
2023/02/05 05:24:34;;;;;;;6.03;3.58;;;;;;;;;;6134018;23;20068;-89
2023/02/05 05:27:02;;;;;;;4.65;2.78;;;;;;;;;;6097974;23;20029;-89
2023/02/05 05:29:29;;;;;;;3.35;2.80;;;;;;;;;;6126478;23;20017;-89
2023/02/05 05:31:56;;;;;;;4.68;3.70;;;;;;;;;;6123549;23;20014;-89
2023/02/05 05:34:24;;;;;;;5.95;4.63;;;;;;;;;;6098988;23;20041;-90
2023/02/05 05:36:53;;;;;;;5.38;3.72;;;;;;;;;;6098020;23;20345;-89
2023/02/05 05:44:51;;;;;;;4.07;3.60;;;;;;;;;;6134856;23;20017;-90
2023/02/05 05:47:19;;;;;;;5.50;3.60;;;;;;;;;;6074508;23;20029;-90
2023/02/05 05:49:46;;;;;;;5.10;3.40;;;;;;;;;;6098379;23;20021;-90
2023/02/05 05:52:15;;;;;;;5.15;3.22;;;;;;;;;;6097056;23;20021;-90
2023/02/05 05:54:42;;;;;;;7.85;3.35;;;;;;;;;;6096694;23;20497;-90
2023/02/05 05:57:10;;;;;;;3.65;2.45;;;;;;;;;;6097401;23;20014;-89
2023/02/05 05:59:37;;;;;;;4.15;3.50;;;;;;;;;;6125605;23;20014;-89
2023/02/05 06:02:04;;;;;;;3.40;3.00;;;;;;;;;;6123231;23;20013;-90
2023/02/05 06:04:32;;;;;;;7.32;3.97;;;;;;;;;;6124004;23;20022;-90
2023/02/05 06:07:01;;;;;;;7.40;2.72;;;;;;;;;;6097683;23;20029;-89
2023/02/05 06:09:29;;;;;;;6.35;3.75;;;;;;;;;;6098716;23;20020;-89
2023/02/05 06:11:57;;;;;;;8.10;6.32;;;;;;;;;;6122509;23;20028;-90
2023/02/05 06:14:24;;;;;;;5.10;3.88;;;;;;;;;;6097872;23;20128;-89
2023/02/05 06:16:54;;;;;;;3.15;2.25;;;;;;;;;;6097655;23;20028;-89
2023/02/05 06:38:48;;;;;;;11.80;10.73;;;;;;;;;;5953043;23;20044;-86
2023/02/05 06:41:20;;;;;;;4.75;4.30;;;;;;;;;;6158350;23;20028;-88
2023/02/05 06:43:47;;;;;;;6.50;3.80;;;;;;;;;;6132499;23;20021;-86
2023/02/05 06:46:17;;;;;;;4.88;3.00;;;;;;;;;;6157546;23;20032;-87
2023/02/05 06:48:44;;;;;;;7.25;5.85;;;;;;;;;;6157901;23;20364;-86
2023/02/05 06:51:12;;;;;;;7.32;4.45;;;;;;;;;;6132461;23;20021;-87
2023/02/05 06:53:40;;;;;;;7.88;3.35;;;;;;;;;;6133295;23;20017;-86
2023/02/05 06:56:09;;;;;;;7.25;4.00;;;;;;;;;;6183928;23;20017;-89
2023/02/05 06:58:36;;;;;;;4.60;3.42;;;;;;;;;;6133161;23;20021;-86
2023/02/05 07:01:04;;;;;;;3.90;3.17;;;;;;;;;;6156815;23;20476;-87
2023/02/05 07:03:34;;;;;;;7.20;3.30;;;;;;;;;;6165103;23;20468;-87
2023/02/05 07:06:05;;;;;;;3.58;3.22;;;;;;;;;;6157839;23;20036;-86
2023/02/05 07:08:35;;;;;;;5.75;4.32;;;;;;;;;;6157534;23;20014;-88
2023/02/05 07:11:08;;;;;;;5.18;4.32;;;;;;;;;;6133128;23;20038;-88
2023/02/05 07:13:40;;;;;;;4.68;4.15;;;;;;;;;;6135506;23;20033;-87
2023/02/05 07:16:10;;;;;;;7.55;3.10;;;;;;;;;;6159426;23;20020;-87
2023/02/05 07:18:37;;;;;;;4.90;2.80;;;;;;;;;;6160180;23;20013;-89
2023/02/05 07:21:06;;;;;;;5.57;3.10;;;;;;;;;;6157548;23;20013;-87
2023/02/05 07:23:37;;;;;;;6.05;3.70;;;;;;;;;;6133972;23;20013;-88
2023/02/05 07:26:09;;;;;;;5.60;3.47;;;;;;;;;;6134477;23;20024;-87
2023/02/05 07:28:40;;;;;;;3.83;3.15;;;;;;;;;;6162063;23;20495;-88
2023/02/05 07:31:09;;;;;;;5.15;3.40;;;;;;;;;;6170037;23;20009;-87
2023/02/05 07:33:37;;;;;;;4.68;3.17;;;;;;;;;;6160675;23;20484;-88
2023/02/05 07:36:10;;;;;;;3.97;3.60;;;;;;;;;;6135065;23;20017;-89
2023/02/05 07:38:38;;;;;;;3.40;3.10;;;;;;;;;;6197882;23;20653;-88
2023/02/05 07:41:06;;;;;;;4.15;3.63;;;;;;;;;;6134682;23;20017;-86
2023/02/05 07:43:36;;;;;;;3.55;3.25;;;;;;;;;;6167732;23;20453;-89
2023/02/05 07:46:10;;;;;;;4.32;3.88;;;;;;;;;;6160869;23;20032;-88
2023/02/05 07:48:40;;;;;;;4.28;2.75;;;;;;;;;;6136856;23;20040;-88
2023/02/05 07:51:08;;;;;;;4.35;3.70;;;;;;;;;;6135029;23;20017;-86
2023/02/05 07:53:36;;;;;;;4.65;4.07;;;;;;;;;;6134777;23;20457;-87
2023/02/05 07:56:06;;;;;;;8.48;5.68;;;;;;;;;;6187706;23;20028;-87
2023/02/05 07:58:34;;;;;;;5.55;4.38;;;;;;;;;;6136415;23;20381;-88
2023/02/05 08:01:02;;;;;;;5.32;4.47;;;;;;;;;;6158356;23;20023;-86
2023/02/05 08:03:31;;;;;;;5.38;3.65;;;;;;;;;;6159466;23;20364;-89
2023/02/05 08:06:04;;;;;;;9.45;5.38;;;;;;;;;;6157869;23;20013;-86
2023/02/05 08:08:32;;;;;;;5.88;5.28;;;;;;;;;;6156960;23;20021;-87
2023/02/05 08:11:04;;;;;;;6.68;5.28;;;;;;;;;;6185021;23;20013;-89
2023/02/05 08:13:33;;;;;;;8.68;5.07;;;;;;;;;;6134542;23;20021;-89
2023/02/05 08:16:07;;;;;;;8.60;5.40;;;;;;;;;;6159920;23;20352;-89
2023/02/05 08:18:36;;;;;;;41.10;26.05;;;;;;;;;;6170834;23;20039;-88
2023/02/05 08:21:04;;;;;;;15.25;11.07;;;;;;;;;;6133393;23;20013;-90
2023/02/05 08:23:32;;;;;;;8.68;6.97;;;;;;;;;;6158603;23;20017;-88
2023/02/05 08:26:02;;;;;;;8.85;7.15;;;;;;;;;;6160342;23;20017;-90
2023/02/05 08:28:30;;;;;;;10.18;8.25;;;;;;;;;;6187469;23;20013;-89
2023/02/05 08:30:58;;;;;;;11.65;8.20;;;;;;;;;;6112296;23;20019;-88
2023/02/05 08:33:29;;;;;;;12.88;8.75;;;;;;;;;;6160900;23;20195;-89
2023/02/05 08:35:59;;;;;;;8.70;7.30;;;;;;;;;;6131567;23;20017;-88
2023/02/05 08:38:29;;;;;;;10.38;7.57;;;;;;;;;;6157613;23;20028;-88
2023/02/05 08:40:57;;;;;;;9.27;8.27;;;;;;;;;;6183789;23;20009;-88
2023/02/05 08:43:24;;;;;;;9.77;7.50;;;;;;;;;;6157754;23;20021;-88
2023/02/05 08:45:52;;;;;;;10.63;7.32;;;;;;;;;;6157721;23;20017;-88
2023/02/05 08:48:21;;;;;;;8.80;7.07;;;;;;;;;;6133584;23;20032;-88
2023/02/05 08:50:49;;;;;;;10.18;7.65;;;;;;;;;;6185550;23;20036;-89
2023/02/05 08:53:18;;;;;;;10.82;7.22;;;;;;;;;;6158721;23;20337;-88
2023/02/05 08:55:45;;;;;;;8.73;7.18;;;;;;;;;;6156293;23;20021;-88
2023/02/05 08:58:15;;;;;;;11.20;8.52;;;;;;;;;;6132816;23;20017;-88
2023/02/05 09:00:43;;;;;;;8.82;6.55;;;;;;;;;;6158235;23;20013;-88
2023/02/05 09:03:13;;;;;;;10.85;7.63;;;;;;;;;;6134229;23;20013;-88
2023/02/05 09:05:40;;;;;;;6.85;6.07;;;;;;;;;;6158984;23;20013;-89
2023/02/05 09:08:10;;;;;;;9.15;6.30;;;;;;;;;;6133388;23;20024;-88
2023/02/05 09:10:47;;;;;;;7.18;6.28;;;;;;;;;;6132527;23;20024;-89
2023/02/05 09:13:15;;;;;;;6.68;5.60;;;;;;;;;;6156993;23;20498;-88
2023/02/05 09:15:49;;;;;;;7.53;6.30;;;;;;;;;;6157042;23;20017;-87
2023/02/05 09:18:17;;;;;;;6.80;4.95;;;;;;;;;;6158147;23;20024;-88
2023/02/05 09:20:48;;;;;;;8.18;6.35;;;;;;;;;;6157436;23;20028;-88
2023/02/05 09:23:19;;;;;;;11.43;6.47;;;;;;;;;;6131772;23;20028;-88
2023/02/05 09:25:48;;;;;;;7.03;5.90;;;;;;;;;;6131928;23;20024;-88
2023/02/05 09:28:19;;;;;;;8.13;5.22;;;;;;;;;;6133141;23;20342;-90
2023/02/05 09:30:47;;;;;;;8.48;5.60;;;;;;;;;;6131936;23;20017;-88
2023/02/05 09:33:14;;;;;;;6.63;5.85;;;;;;;;;;6134090;23;20376;-89
2023/02/05 09:35:47;;;;;;;10.80;6.32;;;;;;;;;;6166695;23;20013;-88
2023/02/05 09:38:17;;;;;;;11.38;8.00;;;;;;;;;;6158690;23;20021;-89
2023/02/05 09:40:55;;;;;;;8.25;7.40;;;;;;;;;;6157947;23;20009;-89
2023/02/05 09:43:30;;;;;;;8.68;7.78;;;;;;;;;;6132925;23;20028;-89
2023/02/05 09:46:32;;;;;;;12.27;8.15;;;;;;;;;;6134434;23;20036;-87
2023/02/05 09:49:02;;;;;;;8.35;6.03;;;;;;;;;;6155217;23;20418;-89
2023/02/05 09:51:34;;;;;;;9.00;6.88;;;;;;;;;;6185661;23;20017;-90
2023/02/05 09:54:13;;;;;;;9.48;7.82;;;;;;;;;;6162051;23;20027;-90
2023/02/05 09:56:45;;;;;;;8.95;6.93;;;;;;;;;;6177299;23;20021;-90
2023/02/05 09:59:20;;;;;;;8.55;7.18;;;;;;;;;;6144677;23;20021;-88
2023/02/05 10:01:50;;;;;;;11.80;8.20;;;;;;;;;;6118195;23;20027;-90
2023/02/05 10:04:18;;;;;;;11.93;7.97;;;;;;;;;;6137728;23;20025;-90
2023/02/05 10:07:11;;;;;;;8.68;7.72;;;;;;;;;;6161734;23;20017;-90
2023/02/05 10:09:49;;;;;;;8.30;7.22;;;;;;;;;;6162602;23;20039;-89
2023/02/05 10:12:30;;;;;;;9.60;8.50;;;;;;;;;;6173802;23;20023;-89
2023/02/05 10:15:08;;;;;;;13.82;9.45;;;;;;;;;;6134091;23;20043;-90
2023/02/05 10:17:49;;;;;;;12.25;8.93;;;;;;;;;;6136185;23;20024;-91
2023/02/05 10:20:26;;;;;;;12.00;9.50;;;;;;;;;;6133277;23;20017;-88
2023/02/05 10:23:05;;;;;;;12.13;9.57;;;;;;;;;;6158675;23;20498;-88
2023/02/05 10:25:50;;;;;;;13.18;11.77;;;;;;;;;;6132456;23;20519;-88
2023/02/05 10:28:34;;;;;;;10.80;9.30;;;;;;;;;;6194396;23;20012;-88
2023/02/05 10:31:07;;;;;;;14.25;10.77;;;;;;;;;;6194575;23;20009;-89
2023/02/05 10:33:44;;;;;;;15.75;11.68;;;;;;;;;;6133896;23;20024;-88
2023/02/05 10:36:15;;;;;;;9.75;8.23;;;;;;;;;;6133260;23;20017;-88
2023/02/05 10:38:44;;;;;;;13.38;10.10;;;;;;;;;;6131968;23;20475;-88
2023/02/05 10:41:19;;;;;;;9.82;7.47;;;;;;;;;;6132751;23;20491;-88
2023/02/05 10:43:52;;;;;;;8.98;7.47;;;;;;;;;;6131074;23;20103;-89
2023/02/05 10:46:20;;;;;;;12.88;9.05;;;;;;;;;;6157201;23;20017;-88
2023/02/05 10:48:50;;;;;;;17.23;10.07;;;;;;;;;;6133018;23;20352;-88
2023/02/05 10:51:23;;;;;;;12.30;9.30;;;;;;;;;;6132126;23;20021;-88
2023/02/05 10:53:53;;;;;;;12.73;11.32;;;;;;;;;;6132570;23;20368;-89
2023/02/05 10:56:21;;;;;;;13.25;10.27;;;;;;;;;;6132223;23;20017;-88
2023/02/05 10:58:55;;;;;;;16.55;12.50;;;;;;;;;;6131038;23;20017;-88
2023/02/05 11:01:24;;;;;;;24.88;15.63;;;;;;;;;;6156730;23;20360;-89
2023/02/05 11:03:55;;;;;;;23.77;13.82;;;;;;;;;;6183259;23;20020;-88
2023/02/05 11:06:25;;;;;;;16.02;11.38;;;;;;;;;;6132527;23;20024;-89
2023/02/05 11:08:55;;;;;;;16.60;12.95;;;;;;;;;;6132828;23;20043;-89
2023/02/05 11:11:24;;;;;;;16.73;11.38;;;;;;;;;;6159365;23;20013;-89
2023/02/05 11:14:00;;;;;;;13.90;12.10;;;;;;;;;;6137222;23;20025;-89
2023/02/05 11:16:36;;;;;;;17.85;13.30;;;;;;;;;;6165955;23;20014;-88
2023/02/05 11:19:18;;;;;;;19.13;13.13;;;;;;;;;;6167351;23;20013;-89
2023/02/05 11:21:49;;;;;;;22.73;16.40;;;;;;;;;;6175545;23;20009;-89
2023/02/05 11:24:29;;;;;;;17.67;15.57;;;;;;;;;;6156355;23;20017;-89
2023/02/05 11:27:26;;;;;;;20.35;16.05;;;;;;;;;;6132905;23;20017;-88
2023/02/05 11:29:56;;;;;;;17.38;15.43;;;;;;;;;;6131448;23;20028;-89
2023/02/05 11:32:32;;;;;;;18.55;12.35;;;;;;;;;;6157032;23;20023;-89
2023/02/05 11:35:20;;;;;;;17.90;14.68;;;;;;;;;;6156046;23;20021;-91
2023/02/05 11:37:49;;;;;;;14.75;12.93;;;;;;;;;;6132424;23;20016;-89
2023/02/05 11:40:22;;;;;;;15.40;12.65;;;;;;;;;;6156696;23;20013;-89
2023/02/05 11:43:07;;;;;;;14.90;12.48;;;;;;;;;;6193292;23;20483;-89
2023/02/05 11:45:39;;;;;;;15.20;11.07;;;;;;;;;;6131536;23;20025;-89
2023/02/05 11:48:24;;;;;;;13.02;9.85;;;;;;;;;;6132100;23;20503;-90
2023/02/05 11:50:52;;;;;;;15.93;11.70;;;;;;;;;;6192437;23;20020;-89
2023/02/05 11:53:22;;;;;;;15.02;11.23;;;;;;;;;;6132083;23;20017;-88
2023/02/05 11:55:55;;;;;;;13.00;10.25;;;;;;;;;;6131659;23;20024;-89
2023/02/05 11:58:25;;;;;;;11.68;9.98;;;;;;;;;;6193486;23;20340;-90
2023/02/05 12:00:57;;;;;;;12.52;10.93;;;;;;;;;;6131458;23;20021;-89
2023/02/05 12:03:29;;;;;;;17.55;11.27;;;;;;;;;;6131631;23;20013;-89
2023/02/05 12:06:03;;;;;;;13.18;11.35;;;;;;;;;;6165680;23;20452;-89
2023/02/05 12:08:36;;;;;;;14.30;10.15;;;;;;;;;;6144094;23;20464;-89
2023/02/05 12:11:14;;;;;;;15.85;11.65;;;;;;;;;;6131510;23;20021;-91
2023/02/05 12:13:57;;;;;;;12.98;10.13;;;;;;;;;;6158637;23;20476;-91
2023/02/05 12:16:40;;;;;;;14.65;12.10;;;;;;;;;;6168856;23;20456;-89
2023/02/05 12:19:18;;;;;;;16.27;12.07;;;;;;;;;;6158056;23;20578;-89
2023/02/05 12:21:50;;;;;;;16.23;12.93;;;;;;;;;;6158469;23;20028;-89
2023/02/05 12:24:35;;;;;;;16.75;13.13;;;;;;;;;;6133984;23;20032;-89
2023/02/05 12:27:08;;;;;;;16.98;12.80;;;;;;;;;;6133766;23;20356;-89
2023/02/05 12:29:50;;;;;;;16.40;13.50;;;;;;;;;;6169531;23;20021;-91
2023/02/05 12:32:26;;;;;;;13.63;10.40;;;;;;;;;;6169226;23;20020;-91
2023/02/05 12:35:08;;;;;;;17.83;14.80;;;;;;;;;;6157611;23;20018;-89
2023/02/05 12:37:46;;;;;;;16.50;14.73;;;;;;;;;;6134774;23;20331;-91
2023/02/05 12:40:36;;;;;;;15.93;12.52;;;;;;;;;;6151222;23;20382;-86
2023/02/05 12:43:11;;;;;;;16.38;12.68;;;;;;;;;;6162271;23;20345;-88
2023/02/05 12:45:46;;;;;;;18.70;12.88;;;;;;;;;;6159506;23;20018;-83
2023/02/05 12:48:31;;;;;;;16.85;11.35;;;;;;;;;;6152221;23;20017;-86
2023/02/05 12:51:20;;;;;;;10.15;8.30;;;;;;;;;;6162416;23;20013;-85
2023/02/05 12:53:59;;;;;;;12.73;9.02;;;;;;;;;;6123679;23;20028;-85
2023/02/05 12:56:45;;;;;;;10.73;9.10;;;;;;;;;;6162554;23;20573;-86
2023/02/05 12:59:16;;;;;;;13.20;11.68;;;;;;;;;;6158009;23;20013;-86
2023/02/05 13:01:46;;;;;;;14.93;12.18;;;;;;;;;;6126441;23;20033;-86
2023/02/05 13:04:21;;;;;;;16.80;12.93;;;;;;;;;;6148323;23;20017;-85
2023/02/05 13:06:53;;;;;;;14.95;11.45;;;;;;;;;;6125442;23;20025;-86
2023/02/05 13:09:23;;;;;;;13.40;11.50;;;;;;;;;;6151044;23;20028;-85
2023/02/05 13:11:55;;;;;;;13.38;11.10;;;;;;;;;;6152169;23;20431;-85
2023/02/05 13:14:26;;;;;;;12.35;11.00;;;;;;;;;;6160251;23;20010;-85
2023/02/05 13:16:57;;;;;;;;;;;;;;;;;;6162907;23;20357;-85
2023/02/05 13:19:30;;;;;;;10.02;8.77;;;;;;;;;;6150885;23;20367;-85
2023/02/05 13:30:33;;;;;;;10.13;8.50;;;;;;;;;;6151010;23;20021;-85
2023/02/05 13:33:04;;;;;;;11.10;8.35;;;;;;;;;;6163878;23;20009;-86
2023/02/05 13:35:39;;;;;;;;;;;;;;;;;;6160934;23;20014;-86
2023/02/05 13:38:17;;;;;;;7.53;6.78;;;;;;;;;;6161871;23;19916;-86
2023/02/05 13:41:12;;;;;;;8.70;6.38;;;;;;;;;;6151960;23;20013;-86
2023/02/05 13:44:07;;;;;;;5.65;5.05;;;;;;;;;;6105162;23;20368;-86
2023/02/05 13:47:21;;;;;;;8.70;5.35;;;;;;;;;;6135679;23;20017;-86
2023/02/05 13:50:26;;;;;;;7.05;4.90;;;;;;;;;;6088511;23;20349;-86
2023/02/05 13:53:15;;;;;;;8.95;6.95;;;;;;;;;;6148706;23;20013;-86
2023/02/05 13:56:02;;;;;;;6.57;5.93;;;;;;;;;;6159826;23;20017;-86
2023/02/05 13:58:29;;;;;;;;;;;;;;;;;;6125548;23;20028;-85
2023/02/05 14:01:00;;;;;;;7.47;4.20;;;;;;;;;;6149083;23;19923;-85
2023/02/05 14:03:36;;;;;;;4.05;3.40;;;;;;;;;;6159946;23;20010;-86
2023/02/05 14:06:21;;;;;;;4.78;4.13;;;;;;;;;;6125541;23;20029;-86
2023/02/05 14:08:52;;;;;;;5.32;3.53;;;;;;;;;;6159824;23;20017;-86
2023/02/05 14:11:23;;;;;;;5.15;4.00;;;;;;;;;;6161972;23;20028;-86
2023/02/05 14:14:21;;;;;;;5.82;4.38;;;;;;;;;;6152766;23;20361;-86
2023/02/05 14:16:50;;;;;;;4.43;3.97;;;;;;;;;;6152186;23;20472;-85
2023/02/05 14:19:22;;;;;;;5.20;4.20;;;;;;;;;;6151810;23;20024;-86
2023/02/05 14:22:01;;;;;;;2.87;2.37;;;;;;;;;;6148940;23;20028;-85
2023/02/05 14:24:44;;;;;;;5.30;3.08;;;;;;;;;;6125556;23;20022;-86
2023/02/05 14:27:50;;;;;;;5.95;3.65;;;;;;;;;;6159775;23;20025;-86
2023/02/05 14:30:46;;;;;;;4.30;3.45;;;;;;;;;;6107340;23;20029;-86
2023/02/05 14:33:34;;;;;;;4.20;3.58;;;;;;;;;;6160909;23;20024;-86
2023/02/05 14:36:33;;;;;;;3.83;3.10;;;;;;;;;;6150560;23;20017;-85
2023/02/05 14:39:17;;;;;;;4.90;2.80;;;;;;;;;;6151160;23;20014;-85
2023/02/05 14:41:52;;;;;;;3.22;2.75;;;;;;;;;;6159894;23;20021;-85
2023/02/05 14:44:25;;;;;;;5.10;3.20;;;;;;;;;;6151052;23;20025;-85
2023/02/05 14:47:02;;;;;;;4.40;2.25;;;;;;;;;;6149890;23;20025;-86
2023/02/05 14:49:38;;;;;;;3.58;3.20;;;;;;;;;;6154365;23;20021;-84
2023/02/05 14:52:15;;;;;;;3.67;2.35;;;;;;;;;;6123672;23;20022;-85
2023/02/05 14:54:47;;;;;;;3.85;2.75;;;;;;;;;;6151860;23;20020;-85
2023/02/05 14:57:21;;;;;;;3.72;2.70;;;;;;;;;;6151109;23;20014;-85
2023/02/05 14:59:53;;;;;;;4.28;2.38;;;;;;;;;;6154166;23;20345;-85
2023/02/05 15:02:47;;;;;;;3.03;2.67;;;;;;;;;;6151476;23;20018;-85
2023/02/05 15:05:17;;;;;;;4.15;2.50;;;;;;;;;;6126098;23;20013;-85
2023/02/05 15:07:45;;;;;;;6.82;3.03;;;;;;;;;;6148515;23;20017;-85
2023/02/05 15:10:18;;;;;;;2.03;1.80;;;;;;;;;;6151706;23;20472;-84
2023/02/05 15:13:00;;;;;;;3.47;3.17;;;;;;;;;;6149253;23;20017;-85
2023/02/05 15:15:31;;;;;;;3.08;2.47;;;;;;;;;;6150946;23;20025;-85
2023/02/05 15:18:25;;;;;;;3.50;3.20;;;;;;;;;;6163516;23;20018;-85
2023/02/05 15:20:55;;;;;;;4.00;3.28;;;;;;;;;;6089628;23;20041;-85
2023/02/05 15:23:34;;;;;;;4.53;3.40;;;;;;;;;;6156612;23;20028;-85
2023/02/05 15:26:07;;;;;;;3.67;3.13;;;;;;;;;;6157308;23;20029;-85
2023/02/05 15:28:40;;;;;;;;;;;;;;;;;;6150338;23;20025;-85
2023/02/05 15:31:21;;;;;;;4.28;3.80;;;;;;;;;;6158487;23;19924;-85
2023/02/05 15:33:58;;;;;;;5.30;3.45;;;;;;;;;;6168586;23;20028;-84
2023/02/05 15:36:35;;;;;;;6.05;2.83;;;;;;;;;;6181947;23;20036;-84
2023/02/05 15:39:19;;;;;;;5.63;3.95;;;;;;;;;;6170890;23;20032;-85
2023/02/05 15:41:53;;;;;;;4.13;2.90;;;;;;;;;;6163443;23;20025;-86
2023/02/05 15:44:26;;;;;;;3.90;2.80;;;;;;;;;;6151657;23;20029;-86
2023/02/05 15:46:56;;;;;;;6.57;3.15;;;;;;;;;;6149888;23;20014;-85
2023/02/05 15:49:38;;;;;;;3.63;3.28;;;;;;;;;;6151885;23;20013;-86
2023/02/05 15:52:07;;;;;;;;;;;;;;;;;;6153736;23;20028;-86
2023/02/05 15:54:36;;;;;;;5.07;2.58;;;;;;;;;;6153980;23;19928;-86
2023/02/05 15:57:04;;;;;;;4.05;3.20;;;;;;;;;;6161638;23;20345;-85
2023/02/05 15:59:35;;;;;;;4.50;3.60;;;;;;;;;;6128352;23;20024;-87
2023/02/05 16:02:06;;;;;;;5.20;4.07;;;;;;;;;;6151638;23;20017;-86
2023/02/05 16:04:36;;;;;;;6.25;3.33;;;;;;;;;;6163872;23;20014;-86
2023/02/05 16:07:17;;;;;;;5.60;3.90;;;;;;;;;;6154301;23;20013;-86
2023/02/05 16:09:47;;;;;;;3.67;2.10;;;;;;;;;;6157104;23;20014;-86
2023/02/05 16:12:16;;;;;;;3.13;2.83;;;;;;;;;;6154490;23;20028;-86
2023/02/05 16:14:46;;;;;;;3.13;2.25;;;;;;;;;;6154817;23;20021;-87
2023/02/05 16:17:19;;;;;;;5.10;2.97;;;;;;;;;;6152141;23;20358;-88
2023/02/05 16:19:49;;;;;;;4.30;3.78;;;;;;;;;;6153211;23;20805;-86
2023/02/05 16:22:34;;;;;;;4.10;3.22;;;;;;;;;;6162867;23;20013;-86
2023/02/05 16:25:05;;;;;;;3.75;2.90;;;;;;;;;;6127469;23;20020;-86
2023/02/05 16:27:36;;;;;;;5.05;3.15;;;;;;;;;;6151868;23;20022;-86
2023/02/05 16:30:13;;;;;;;3.75;3.30;;;;;;;;;;6155070;23;20040;-87
2023/02/05 16:32:42;;;;;;;4.90;3.50;;;;;;;;;;6154487;23;20025;-87
2023/02/05 16:35:20;;;;;;;6.35;4.47;;;;;;;;;;6120229;23;20029;-87
2023/02/05 16:37:47;;;;;;;4.78;3.42;;;;;;;;;;6154189;23;20022;-87
2023/02/05 16:40:14;;;;;;;5.38;3.47;;;;;;;;;;6144612;23;20068;-88
2023/02/05 16:42:46;;;;;;;4.28;3.20;;;;;;;;;;6118422;23;20465;-86
2023/02/05 16:45:24;;;;;;;4.07;3.60;;;;;;;;;;6143545;23;20025;-86
2023/02/05 16:48:23;;;;;;;4.80;3.95;;;;;;;;;;6143613;23;20037;-86
2023/02/05 16:50:52;;;;;;;5.20;3.83;;;;;;;;;;6155059;23;20017;-85
2023/02/05 16:53:22;;;;;;;4.18;3.42;;;;;;;;;;6143075;23;20018;-86
2023/02/05 16:55:50;;;;;;;4.53;3.67;;;;;;;;;;6142541;23;20410;-85
2023/02/05 16:58:22;;;;;;;3.75;3.35;;;;;;;;;;6154467;23;20040;-85
2023/02/05 17:00:56;;;;;;;4.97;4.43;;;;;;;;;;6145476;23;20024;-85
2023/02/05 17:03:29;;;;;;;6.20;4.45;;;;;;;;;;6153703;23;20020;-86
2023/02/05 17:05:58;;;;;;;5.13;3.58;;;;;;;;;;6120311;23;20480;-85
2023/02/05 17:08:29;;;;;;;4.22;3.63;;;;;;;;;;6152218;23;20025;-86
2023/02/05 17:10:58;;;;;;;4.40;3.90;;;;;;;;;;6152113;23;20028;-86
2023/02/05 17:13:39;;;;;;;4.50;3.90;;;;;;;;;;6152355;23;20357;-86
2023/02/05 17:16:25;;;;;;;4.30;3.88;;;;;;;;;;6164220;23;20021;-86
2023/02/05 17:18:57;;;;;;;4.55;4.05;;;;;;;;;;6152558;23;20029;-86
2023/02/05 17:21:28;;;;;;;5.20;4.22;;;;;;;;;;6162013;23;20013;-85
2023/02/05 17:23:58;;;;;;;6.25;4.28;;;;;;;;;;6153873;23;20017;-87
2023/02/05 17:26:31;;;;;;;5.38;4.18;;;;;;;;;;6119048;23;20068;-86
2023/02/05 17:29:06;;;;;;;7.18;5.18;;;;;;;;;;6143158;23;20025;-84
2023/02/05 17:31:37;;;;;;;7.85;5.55;;;;;;;;;;6145564;23;20024;-86
2023/02/05 17:34:05;;;;;;;7.93;6.10;;;;;;;;;;6152607;23;20028;-86
2023/02/05 17:36:33;;;;;;;7.68;5.22;;;;;;;;;;6144212;23;20017;-87
2023/02/05 17:39:02;;;;;;;7.45;6.75;;;;;;;;;;6144239;23;20013;-85
2023/02/05 17:44:17;;;;;;;8.52;6.88;;;;;;;;;;6152893;23;20021;-85
2023/02/05 17:46:46;;;;;;;9.48;6.13;;;;;;;;;;6118985;23;20461;-85
2023/02/05 17:49:13;;;;;;;7.60;6.45;;;;;;;;;;6142820;23;20013;-85
2023/02/05 17:51:41;;;;;;;10.57;6.72;;;;;;;;;;6145830;23;20025;-86
2023/02/05 17:54:13;;;;;;;4.13;3.20;;;;;;;;;;6142187;23;20021;-86
2023/02/05 17:56:43;;;;;;;3.95;3.28;;;;;;;;;;6146520;23;20043;-86
2023/02/05 17:59:15;;;;;;;3.40;2.33;;;;;;;;;;6151179;23;20070;-85
2023/02/05 18:01:46;;;;;;;3.17;2.88;;;;;;;;;;6156127;23;20051;-86